Time;durP1;ratioP1;P1;durP2;ratioP2;P2;SDS_P1;SDS_P2;PMS_P1;PMS_P2;Temp;Humidity;BMP_temperature;BMP_pressure;BME280_temperature;BME280_humidity;BME280_pressure;Samples;Min_cycle;Max_cycle;Signal;HPM_P1;HPM_P2
2020/12/10 00:01:35;;;;;;;18.73;9.30;;;;;;;6.18;72.70;93112.28;5009488;28;20366;-66
2020/12/10 00:04:01;;;;;;;12.25;6.72;;;;;;;6.19;72.83;93113.88;5010724;28;20080;-66
2020/12/10 00:06:26;;;;;;;11.00;5.45;;;;;;;6.21;72.51;93119.63;5008976;28;20057;-66
2020/12/10 00:08:52;;;;;;;9.00;4.63;;;;;;;6.26;72.58;93110.78;5009385;28;20414;-66
2020/12/10 00:11:17;;;;;;;8.05;4.22;;;;;;;6.29;72.66;93110.19;5009095;28;20032;-66
2020/12/10 00:13:42;;;;;;;7.68;3.15;;;;;;;6.30;72.46;93111.75;5010418;28;20065;-66
2020/12/10 00:16:12;;;;;;;6.53;3.58;;;;;;;6.32;72.52;93091.03;5009149;28;20064;-66
2020/12/10 00:18:39;;;;;;;9.18;3.75;;;;;;;6.36;72.55;93099.16;5010208;28;20022;-66
2020/12/10 00:21:05;;;;;;;7.20;4.20;;;;;;;6.40;72.33;93089.53;5010421;28;20034;-67
2020/12/10 00:23:30;;;;;;;7.07;4.15;;;;;;;6.42;72.24;93068.81;5010045;28;20032;-67
2020/12/10 00:25:56;;;;;;;6.50;3.72;;;;;;;6.46;72.18;93076.94;5010418;28;20505;-67
2020/12/10 00:28:21;;;;;;;7.15;3.50;;;;;;;6.50;72.08;93078.66;5009881;28;20390;-67
2020/12/10 00:30:47;;;;;;;5.63;3.53;;;;;;;6.49;72.21;93077.09;5009148;28;20103;-67
2020/12/10 00:33:12;;;;;;;11.18;6.18;;;;;;;6.51;71.84;93085.50;5010396;28;20021;-67
2020/12/10 00:35:38;;;;;;;12.32;5.90;;;;;;;6.51;71.95;93052.97;5008519;28;20030;-67
2020/12/10 00:38:03;;;;;;;10.05;4.97;;;;;;;6.51;72.02;93090.03;5009024;28;20346;-67
2020/12/10 00:40:28;;;;;;;8.63;4.63;;;;;;;6.50;72.06;93089.25;5009818;28;20473;-67
2020/12/10 00:42:54;;;;;;;8.82;4.70;;;;;;;6.50;72.23;93089.25;5010015;28;20135;-66
2020/12/10 00:45:19;;;;;;;8.40;4.45;;;;;;;6.51;71.93;93096.09;5010147;28;20021;-66
2020/12/10 00:47:45;;;;;;;6.32;4.00;;;;;;;6.52;72.42;93081.78;5009806;28;20405;-66
2020/12/10 00:50:11;;;;;;;8.18;4.30;;;;;;;6.43;72.32;93080.97;5010130;28;20464;-66
2020/12/10 00:52:37;;;;;;;10.07;4.18;;;;;;;6.40;72.39;93085.00;5008593;28;20025;-66
2020/12/10 00:55:03;;;;;;;10.25;4.35;;;;;;;6.30;72.73;93084.50;5010035;28;20113;-66
2020/12/10 00:57:28;;;;;;;8.27;3.78;;;;;;;6.16;72.95;93085.34;5010027;28;20104;-66
2020/12/10 00:59:53;;;;;;;13.50;4.55;;;;;;;6.05;73.73;93084.06;5009642;28;20687;-66
2020/12/10 01:02:19;;;;;;;9.93;4.82;;;;;;;5.96;73.98;93088.50;5008433;28;20099;-66
2020/12/10 01:04:44;;;;;;;8.38;4.43;;;;;;;5.95;74.12;93090.38;5012141;28;20018;-67
2020/12/10 01:07:10;;;;;;;12.35;4.93;;;;;;;5.95;74.16;93095.69;5011877;28;20394;-67
2020/12/10 01:09:35;;;;;;;7.80;4.70;;;;;;;5.93;74.30;93086.47;5013860;28;20121;-66
2020/12/10 01:12:05;;;;;;;9.75;4.80;;;;;;;5.99;74.25;93075.47;5012454;28;20040;-66
2020/12/10 01:14:31;;;;;;;7.80;4.32;;;;;;;6.03;74.19;93089.66;5013893;28;20030;-66
2020/12/10 01:16:57;;;;;;;11.60;4.60;;;;;;;6.08;73.79;93099.31;5013569;28;20510;-66
2020/12/10 01:19:22;;;;;;;9.23;5.30;;;;;;;6.12;73.64;93073.03;5012640;28;20105;-66
2020/12/10 01:21:48;;;;;;;10.85;5.82;;;;;;;6.13;73.54;93070.09;5012167;28;20060;-67
2020/12/10 01:24:13;;;;;;;13.90;7.05;;;;;;;6.16;73.33;93074.78;5013566;28;20476;-67
2020/12/10 01:26:38;;;;;;;13.10;6.57;;;;;;;6.17;73.15;93043.81;5013657;28;20485;-67
2020/12/10 01:29:05;;;;;;;16.92;8.27;;;;;;;6.17;73.34;93044.59;5013235;28;20493;-67
2020/12/10 01:31:30;;;;;;;16.30;7.75;;;;;;;6.19;73.06;93060.19;5012119;28;20022;-67
2020/12/10 01:33:56;;;;;;;15.55;8.10;;;;;;;6.17;72.93;93060.47;5013176;28;20018;-69
2020/12/10 01:36:24;;;;;;;16.23;8.18;;;;;;;6.12;73.13;93062.47;5012110;28;20029;-69
2020/12/10 01:38:51;;;;;;;14.70;7.70;;;;;;;6.15;72.85;93057.34;5013212;28;20105;-68
2020/12/10 01:41:17;;;;;;;15.95;7.90;;;;;;;6.14;72.77;93062.94;5012678;28;20038;-68
2020/12/10 01:43:43;;;;;;;14.95;7.47;;;;;;;6.11;72.88;93069.63;5011975;28;20034;-68
2020/12/10 01:46:09;;;;;;;11.65;6.25;;;;;;;6.05;72.34;93062.13;5012924;28;20021;-68
2020/12/10 01:48:35;;;;;;;11.02;5.63;;;;;;;5.93;72.90;93062.66;5013131;28;20060;-68
2020/12/10 01:51:01;;;;;;;11.60;5.82;;;;;;;5.88;73.22;93038.97;5011665;28;20029;-68
2020/12/10 01:53:27;;;;;;;11.10;5.63;;;;;;;5.77;73.68;93051.66;5012951;28;20045;-68
2020/12/10 01:55:53;;;;;;;10.90;5.82;;;;;;;5.65;74.14;93054.84;5013089;28;20030;-67
2020/12/10 01:58:18;;;;;;;8.98;5.30;;;;;;;5.60;74.47;93049.69;5011383;28;20033;-68
2020/12/10 02:00:44;;;;;;;12.18;5.30;;;;;;;5.50;74.78;93055.25;5012865;28;20034;-68
2020/12/10 02:03:10;;;;;;;9.60;5.15;;;;;;;5.51;74.89;93059.44;5012630;28;20061;-68
2020/12/10 02:05:48;;;;;;;8.75;5.00;;;;;;;5.55;74.73;93044.53;5012775;28;20034;-68
2020/12/10 02:08:14;;;;;;;10.57;5.57;;;;;;;5.56;74.61;93038.19;5012548;28;20033;-68
2020/12/10 02:10:40;;;;;;;7.93;4.88;;;;;;;5.62;74.24;93060.75;5012656;28;20115;-67
2020/12/10 02:13:06;;;;;;;8.25;4.68;;;;;;;5.59;74.08;93045.47;5012713;28;20500;-67
2020/12/10 02:15:35;;;;;;;8.38;5.13;;;;;;;5.61;74.23;93051.25;5012410;28;20034;-67
2020/12/10 02:18:06;;;;;;;11.82;5.50;;;;;;;5.54;74.68;93058.84;5012561;28;20083;-67
2020/12/10 02:20:33;;;;;;;12.10;5.60;;;;;;;5.53;74.76;93047.47;5012189;28;20029;-66
2020/12/10 02:23:00;;;;;;;9.45;5.68;;;;;;;5.58;74.70;93043.94;5012532;28;20041;-67
2020/12/10 02:25:30;;;;;;;11.30;5.40;;;;;;;5.61;74.80;93044.09;5008384;28;20037;-67
2020/12/10 02:27:56;;;;;;;11.27;5.70;;;;;;;5.63;74.67;93014.72;5012535;28;20497;-67
2020/12/10 02:30:21;;;;;;;10.30;5.93;;;;;;;5.67;74.73;93036.06;5012182;28;20038;-67
2020/12/10 02:32:46;;;;;;;9.75;5.03;;;;;;;5.70;74.28;93020.38;5010908;28;20033;-67
2020/12/10 02:35:12;;;;;;;12.10;6.03;;;;;;;5.75;74.63;93041.38;5012259;28;20029;-68
2020/12/10 02:37:37;;;;;;;10.45;5.75;;;;;;;5.77;74.35;93047.16;5011965;28;20112;-68
2020/12/10 02:40:03;;;;;;;9.55;5.15;;;;;;;5.76;74.38;93032.38;5012113;28;20030;-68
2020/12/10 02:42:28;;;;;;;11.15;6.18;;;;;;;5.78;74.59;93022.28;5011695;28;20111;-68
2020/12/10 02:44:54;;;;;;;11.00;6.38;;;;;;;5.83;74.36;93011.56;5010759;28;20487;-67
2020/12/10 02:47:19;;;;;;;12.35;6.55;;;;;;;5.83;74.88;93013.44;5010690;28;20060;-67
2020/12/10 02:49:45;;;;;;;10.13;5.53;;;;;;;5.79;74.05;93002.69;5011919;28;20041;-67
2020/12/10 02:52:10;;;;;;;13.13;6.32;;;;;;;5.61;75.04;93008.97;5010537;28;20053;-67
2020/12/10 02:54:35;;;;;;;10.95;6.30;;;;;;;5.53;74.98;93009.69;5011619;28;20037;-68
2020/12/10 02:57:01;;;;;;;11.32;5.32;;;;;;;5.40;75.91;92985.66;5011775;28;20030;-67
2020/12/10 02:59:27;;;;;;;13.15;6.20;;;;;;;5.39;76.28;93021.13;5011929;28;20034;-67
2020/12/10 03:01:53;;;;;;;11.25;7.15;;;;;;;5.45;76.08;93002.47;5010256;28;20030;-68
2020/12/10 03:04:18;;;;;;;13.13;6.43;;;;;;;5.46;76.28;93014.63;5010212;28;20026;-68
2020/12/10 03:06:43;;;;;;;13.93;6.40;;;;;;;5.56;75.86;93023.09;5011501;28;20053;-68
2020/12/10 03:09:09;;;;;;;12.05;7.05;;;;;;;5.35;77.20;93020.16;5011881;28;20038;-67
2020/12/10 03:11:34;;;;;;;11.10;6.55;;;;;;;5.29;77.92;93004.69;5010248;28;20117;-68
2020/12/10 03:14:00;;;;;;;11.45;6.60;;;;;;;5.31;78.13;93003.34;5010079;28;20030;-67
2020/12/10 03:16:25;;;;;;;9.93;5.75;;;;;;;5.35;78.04;93008.78;5010220;28;20083;-67
2020/12/10 03:18:51;;;;;;;8.30;5.45;;;;;;;5.38;77.98;92998.41;5009978;28;20485;-68
2020/12/10 03:21:16;;;;;;;10.90;6.05;;;;;;;5.45;77.96;93008.53;5009978;28;20034;-67
2020/12/10 03:23:42;;;;;;;9.10;5.50;;;;;;;5.49;77.71;93014.00;5009925;28;20049;-67
2020/12/10 03:26:07;;;;;;;12.20;6.18;;;;;;;5.58;77.67;92996.34;5009069;28;20481;-67
2020/12/10 03:28:32;;;;;;;12.68;6.28;;;;;;;5.67;76.95;92980.53;5011214;28;20029;-67
2020/12/10 03:30:58;;;;;;;11.23;6.63;;;;;;;5.75;76.59;93000.94;5011288;28;20018;-67
2020/12/10 03:33:23;;;;;;;13.18;6.32;;;;;;;5.77;76.77;92996.91;5011236;28;20037;-67
2020/12/10 03:35:49;;;;;;;11.27;6.13;;;;;;;5.84;76.64;92999.13;5009790;28;20022;-67
2020/12/10 03:38:14;;;;;;;12.80;6.57;;;;;;;5.89;76.49;92990.28;5009580;28;20112;-67
2020/12/10 03:40:39;;;;;;;12.48;6.40;;;;;;;5.86;76.65;92990.88;5009664;28;20056;-68
2020/12/10 03:43:05;;;;;;;11.85;6.07;;;;;;;5.95;76.19;93015.56;5009556;28;20052;-67
2020/12/10 03:45:33;;;;;;;9.68;5.57;;;;;;;5.92;76.31;92992.31;5010934;28;20121;-67
2020/12/10 03:47:58;;;;;;;12.15;5.90;;;;;;;5.95;76.35;93007.63;5009869;28;20485;-68
2020/12/10 03:50:24;;;;;;;12.30;6.38;;;;;;;5.96;76.41;93007.31;5010667;28;20064;-67
2020/12/10 03:52:49;;;;;;;11.50;6.00;;;;;;;6.04;76.05;92987.25;5010922;28;20444;-68
2020/12/10 03:55:14;;;;;;;15.32;7.07;;;;;;;6.09;75.43;93018.09;5009323;28;20022;-68
2020/12/10 03:57:40;;;;;;;12.68;6.90;;;;;;;6.00;75.67;93018.84;5010882;28;20036;-68
2020/12/10 04:00:05;;;;;;;15.27;7.75;;;;;;;6.03;75.94;93006.88;5010612;28;20026;-67
2020/12/10 04:02:31;;;;;;;15.95;8.15;;;;;;;6.08;75.85;93008.59;5010714;28;20111;-67
2020/12/10 04:04:56;;;;;;;14.85;8.95;;;;;;;6.15;75.73;93011.59;5009518;28;20033;-67
2020/12/10 04:07:22;;;;;;;13.98;7.72;;;;;;;6.19;75.35;92999.31;5010229;28;20100;-67
2020/12/10 04:09:47;;;;;;;15.93;8.65;;;;;;;6.15;75.34;92983.25;5009366;28;20508;-67
2020/12/10 04:12:12;;;;;;;15.77;7.80;;;;;;;6.17;74.62;92996.97;5010276;28;20061;-68
2020/12/10 04:14:38;;;;;;;12.98;7.30;;;;;;;6.05;75.58;92998.63;5009330;28;20107;-67
2020/12/10 04:17:03;;;;;;;12.40;7.05;;;;;;;6.01;75.79;93014.34;5009293;28;20029;-67
2020/12/10 04:19:29;;;;;;;11.00;6.93;;;;;;;5.99;75.33;93038.44;5009235;28;20072;-67
2020/12/10 04:21:54;;;;;;;13.00;6.95;;;;;;;5.83;76.21;93022.13;5010504;28;20069;-68
2020/12/10 04:24:19;;;;;;;13.77;6.28;;;;;;;5.80;76.62;93032.53;5010313;28;20058;-67
2020/12/10 04:26:45;;;;;;;15.20;7.25;;;;;;;5.78;76.66;93038.16;5009098;28;20397;-68
2020/12/10 04:29:13;;;;;;;11.70;6.88;;;;;;;5.80;77.01;93035.97;5010377;28;20451;-68
2020/12/10 04:31:40;;;;;;;13.23;7.10;;;;;;;5.85;76.97;93037.72;5010172;28;20034;-68
2020/12/10 04:34:06;;;;;;;12.48;7.07;;;;;;;5.92;76.83;93016.13;5009133;28;20440;-68
2020/12/10 04:36:31;;;;;;;20.27;8.27;;;;;;;5.93;76.37;93015.81;5008633;28;20033;-67
2020/12/10 04:38:57;;;;;;;14.75;9.73;;;;;;;6.00;76.22;93039.22;5010330;28;20033;-68
2020/12/10 04:41:22;;;;;;;19.77;11.00;;;;;;;6.09;76.18;93037.41;5008626;28;20104;-67
2020/12/10 04:43:48;;;;;;;17.30;8.40;;;;;;;6.03;76.54;93033.31;5010298;28;20028;-67
2020/12/10 04:46:13;;;;;;;29.85;16.90;;;;;;;6.11;76.62;93029.16;5008977;28;20378;-68
2020/12/10 04:48:40;;;;;;;25.23;13.50;;;;;;;6.18;76.49;93030.25;5009919;28;20489;-67
2020/12/10 04:51:07;;;;;;;22.65;13.48;;;;;;;6.27;76.44;93005.69;5008719;28;20050;-68
2020/12/10 04:53:33;;;;;;;20.98;11.60;;;;;;;6.31;76.43;93004.81;5008863;28;20026;-68
2020/12/10 04:56:04;;;;;;;21.88;10.13;;;;;;;6.36;75.75;93012.59;5010108;28;20032;-68
2020/12/10 04:58:30;;;;;;;17.50;9.52;;;;;;;6.37;75.98;93016.00;5009943;28;20476;-68
2020/12/10 05:00:58;;;;;;;16.73;10.38;;;;;;;6.32;76.11;93000.28;5008700;28;20043;-68
2020/12/10 05:03:24;;;;;;;18.90;9.88;;;;;;;6.35;75.95;93023.47;5008581;28;20428;-67
2020/12/10 05:05:49;;;;;;;19.00;10.02;;;;;;;6.38;75.69;93023.66;5009873;28;20104;-68
2020/12/10 05:08:28;;;;;;;19.98;9.95;;;;;;;6.45;75.49;93009.97;5010087;28;20026;-68
2020/12/10 05:10:53;;;;;;;22.13;8.88;;;;;;;6.47;75.44;93015.72;5009893;28;20040;-69
2020/12/10 05:13:19;;;;;;;14.40;8.02;;;;;;;6.25;75.92;93029.84;5008773;28;20014;-68
2020/12/10 05:15:44;;;;;;;12.68;6.97;;;;;;;6.19;76.15;93021.25;5008621;28;20026;-69
2020/12/10 05:18:15;;;;;;;13.38;7.30;;;;;;;6.17;76.65;93028.72;5009679;28;20029;-69
2020/12/10 05:20:44;;;;;;;15.13;8.10;;;;;;;6.21;76.29;93028.91;5008237;28;20455;-68
2020/12/10 05:23:10;;;;;;;15.95;8.23;;;;;;;6.25;76.38;93034.34;5008511;28;20473;-69
2020/12/10 05:26:06;;;;;;;16.65;8.00;;;;;;;6.26;76.26;93023.44;5008643;28;20022;-67
2020/12/10 05:28:48;;;;;;;17.67;9.02;;;;;;;6.26;76.11;93014.75;5009026;28;20164;-67
2020/12/10 05:31:16;;;;;;;16.23;8.77;;;;;;;6.18;76.68;93030.25;5008447;28;20021;-67
2020/12/10 05:33:54;;;;;;;21.35;7.82;;;;;;;6.19;76.61;93017.84;5008438;28;20030;-67
2020/12/10 05:36:21;;;;;;;14.13;8.77;;;;;;;6.24;76.14;93033.56;5009738;28;20026;-66
2020/12/10 05:39:04;;;;;;;14.27;8.07;;;;;;;6.15;76.89;93028.25;5009667;28;20026;-67
2020/12/10 05:41:32;;;;;;;16.42;9.00;;;;;;;5.89;79.30;93024.66;5008449;28;20394;-67
2020/12/10 05:44:14;;;;;;;13.30;8.35;;;;;;;5.98;79.23;93036.09;5008216;28;20433;-67
2020/12/10 05:46:39;;;;;;;15.20;9.40;;;;;;;6.04;78.67;93045.47;5009662;28;20030;-67
2020/12/10 05:49:05;;;;;;;15.02;8.93;;;;;;;6.09;78.26;93047.22;5011131;28;20065;-67
2020/12/10 05:51:41;;;;;;;15.13;9.27;;;;;;;6.13;77.49;93038.34;5013146;28;20034;-66
2020/12/10 05:54:09;;;;;;;17.52;10.30;;;;;;;6.22;77.04;93052.38;5013299;28;20616;-67
2020/12/10 05:56:49;;;;;;;17.80;9.52;;;;;;;6.26;76.51;93057.09;5013320;28;20037;-66
2020/12/10 05:59:15;;;;;;;17.60;9.63;;;;;;;6.23;76.73;93047.91;5011753;28;20044;-67
2020/12/10 06:01:40;;;;;;;19.52;10.02;;;;;;;6.31;76.36;93052.44;5013139;28;20034;-67
2020/12/10 06:04:06;;;;;;;22.08;11.35;;;;;;;6.38;76.10;93054.63;5012801;28;20070;-67
2020/12/10 06:06:31;;;;;;;18.83;10.38;;;;;;;6.40;76.00;93050.59;5011554;28;20054;-67
2020/12/10 06:09:01;;;;;;;17.73;10.98;;;;;;;6.45;75.80;93047.03;5012997;28;20497;-67
2020/12/10 06:11:26;;;;;;;20.63;10.50;;;;;;;6.46;75.56;93038.00;5011648;28;20436;-67
2020/12/10 06:14:03;;;;;;;19.75;10.63;;;;;;;6.52;75.24;93049.25;5012735;28;20033;-68
2020/12/10 06:16:29;;;;;;;21.70;10.00;;;;;;;6.58;75.06;93053.31;5011260;28;20041;-67
2020/12/10 06:19:03;;;;;;;18.60;10.68;;;;;;;6.62;74.85;93056.91;5012486;28;20405;-67
2020/12/10 06:21:45;;;;;;;23.65;10.93;;;;;;;6.67;74.47;93058.63;5011380;28;20045;-67
2020/12/10 06:24:35;;;;;;;19.33;10.73;;;;;;;6.72;74.15;93064.56;5012736;28;20029;-68
2020/12/10 06:27:19;;;;;;;21.30;12.45;;;;;;;6.76;74.24;93060.22;5005758;28;20112;-68
2020/12/10 06:29:44;;;;;;;20.02;11.90;;;;;;;6.71;74.61;93056.91;5011342;28;20108;-67
2020/12/10 06:32:14;;;;;;;17.23;9.65;;;;;;;6.74;74.81;93056.31;5011130;28;20021;-68
2020/12/10 06:34:46;;;;;;;21.10;10.18;;;;;;;6.71;74.81;93062.97;5012310;28;20034;-68
2020/12/10 06:37:30;;;;;;;22.60;11.40;;;;;;;6.75;74.88;93063.16;5012759;28;20392;-67
2020/12/10 06:40:01;;;;;;;25.42;11.57;;;;;;;6.79;75.01;93066.75;5010844;28;20034;-68
2020/12/10 06:42:46;;;;;;;24.00;12.73;;;;;;;6.87;74.76;93081.88;5011937;28;20107;-67
2020/12/10 06:45:32;;;;;;;27.27;15.23;;;;;;;6.93;74.62;93078.00;5012029;28;20025;-68
2020/12/10 06:48:00;;;;;;;34.10;17.58;;;;;;;6.97;74.56;93068.34;5011996;28;20018;-68
2020/12/10 06:50:28;;;;;;;34.35;19.60;;;;;;;7.01;74.84;93077.22;5012148;28;20049;-67
2020/12/10 06:53:08;;;;;;;35.83;19.35;;;;;;;7.10;74.35;93068.50;5010561;28;20026;-67
2020/12/10 06:55:54;;;;;;;41.15;21.73;;;;;;;7.15;74.32;93068.38;5010334;28;20400;-67
2020/12/10 06:58:19;;;;;;;39.05;19.65;;;;;;;7.20;74.21;93066.34;5011198;28;20076;-67
2020/12/10 07:00:50;;;;;;;38.53;17.85;;;;;;;7.29;73.58;93076.97;5010547;28;20033;-67
2020/12/10 07:03:26;;;;;;;33.33;16.52;;;;;;;7.29;74.29;93070.91;5010252;28;20477;-67
2020/12/10 07:05:51;;;;;;;68.63;27.63;;;;;;;7.32;74.26;93065.72;5010291;28;20405;-67
2020/12/10 07:08:18;;;;;;;39.65;18.73;;;;;;;7.38;73.83;93058.41;5011382;28;20113;-67
2020/12/10 07:10:49;;;;;;;29.33;13.80;;;;;;;7.36;73.89;93061.38;5011392;28;20021;-68
2020/12/10 07:13:16;;;;;;;25.02;11.55;;;;;;;7.36;73.95;93060.59;5011305;28;20093;-69
2020/12/10 07:15:49;;;;;;;16.50;9.98;;;;;;;7.33;74.07;93062.00;5010243;28;20033;-69
2020/12/10 07:18:15;;;;;;;16.85;9.50;;;;;;;7.34;74.29;93071.50;5011705;28;20029;-68
2020/12/10 07:20:40;;;;;;;24.17;11.77;;;;;;;7.40;74.26;93072.91;5009835;28;20069;-70
2020/12/10 07:23:06;;;;;;;23.63;12.77;;;;;;;7.49;74.00;93085.38;5011670;28;20635;-69
2020/12/10 07:25:31;;;;;;;27.88;13.10;;;;;;;7.60;73.94;93092.72;5009769;28;20029;-69
2020/12/10 07:27:57;;;;;;;26.55;13.07;;;;;;;7.65;74.16;93099.72;5011287;28;20034;-69
2020/12/10 07:30:27;;;;;;;25.17;12.95;;;;;;;7.70;73.76;93096.16;5010120;28;20163;-69
2020/12/10 07:32:54;;;;;;;26.95;12.65;;;;;;;7.76;72.33;93073.69;5011246;28;20109;-68
2020/12/10 07:35:36;;;;;;;30.05;12.88;;;;;;;7.74;72.74;93075.88;5009862;28;20462;-68
2020/12/10 07:38:13;;;;;;;27.08;12.50;;;;;;;7.75;72.99;93086.16;5010941;28;20389;-67
2020/12/10 07:40:39;;;;;;;25.95;11.48;;;;;;;7.59;73.30;93088.53;5010789;28;20096;-67
2020/12/10 07:43:09;;;;;;;16.77;9.23;;;;;;;7.41;74.17;93085.09;5009365;28;20046;-67
2020/12/10 07:45:36;;;;;;;16.40;9.07;;;;;;;7.41;75.26;93079.00;5010861;28;20485;-67
2020/12/10 07:48:06;;;;;;;22.52;8.48;;;;;;;7.35;75.09;93070.41;5010777;28;20033;-67
2020/12/10 07:50:35;;;;;;;18.90;9.05;;;;;;;7.49;75.18;93080.06;5009463;28;20025;-67
2020/12/10 07:53:07;;;;;;;16.02;9.27;;;;;;;7.61;74.67;93096.16;5010736;28;20025;-68
2020/12/10 07:55:35;;;;;;;19.75;8.30;;;;;;;7.74;74.20;93097.88;5010978;28;20029;-68
2020/12/10 07:58:17;;;;;;;18.38;8.70;;;;;;;7.83;74.10;93100.50;5009556;28;20029;-68
2020/12/10 08:00:45;;;;;;;16.25;7.28;;;;;;;7.89;73.80;93085.97;5009104;28;20034;-67
2020/12/10 08:03:24;;;;;;;14.07;6.78;;;;;;;8.01;73.13;93085.34;5010398;28;20065;-66
2020/12/10 08:06:03;;;;;;;9.43;5.68;;;;;;;8.11;71.85;93090.31;5010381;28;20112;-66
2020/12/10 08:08:38;;;;;;;11.65;6.70;;;;;;;8.11;72.57;93089.53;5010527;28;20026;-66
2020/12/10 08:11:11;;;;;;;14.80;7.15;;;;;;;8.16;72.61;93081.41;5010343;28;20109;-66
2020/12/10 08:13:37;;;;;;;23.00;9.73;;;;;;;8.14;72.66;93097.66;5009213;28;20025;-67
2020/12/10 08:16:07;;;;;;;22.98;11.02;;;;;;;7.96;72.96;93098.78;5010341;28;20037;-67
2020/12/10 08:18:33;;;;;;;12.43;6.97;;;;;;;8.00;72.79;93079.25;5010570;28;20029;-67
2020/12/10 08:20:59;;;;;;;13.82;8.80;;;;;;;8.01;73.34;93098.63;5010198;28;20030;-68
2020/12/10 08:23:26;;;;;;;22.58;11.60;;;;;;;8.01;74.21;93094.06;5010848;28;20160;-68
2020/12/10 08:26:12;;;;;;;27.63;13.93;;;;;;;8.14;74.07;93088.91;5009233;28;20473;-68
2020/12/10 08:28:38;;;;;;;25.63;13.00;;;;;;;8.15;73.56;93080.63;5010068;28;20448;-68
2020/12/10 08:31:05;;;;;;;25.67;13.98;;;;;;;8.26;73.67;93083.72;5009975;28;20025;-69
2020/12/10 08:33:37;;;;;;;20.95;11.38;;;;;;;8.35;73.00;93081.81;5010334;28;20026;-68
2020/12/10 08:36:03;;;;;;;25.58;10.27;;;;;;;8.34;72.99;93085.56;5010085;28;20033;-68
2020/12/10 08:38:30;;;;;;;18.45;10.57;;;;;;;8.33;73.58;93094.63;5008791;28;20397;-68
2020/12/10 08:40:59;;;;;;;32.15;17.75;;;;;;;8.40;73.48;93076.31;5008487;28;20033;-69
2020/12/10 08:43:25;;;;;;;14.02;9.63;;;;;;;8.50;73.24;93085.84;5008795;28;20139;-68
2020/12/10 08:45:51;;;;;;;16.63;9.05;;;;;;;8.54;73.00;93078.81;5009900;28;20026;-67
2020/12/10 08:48:25;;;;;;;16.77;9.07;;;;;;;8.62;72.96;93085.97;5009927;28;20025;-67
2020/12/10 08:50:52;;;;;;;19.40;10.07;;;;;;;8.76;72.65;93077.78;5009825;28;20147;-67
2020/12/10 08:53:18;;;;;;;11.75;6.60;;;;;;;8.82;71.71;93071.19;5008690;28;20026;-67
2020/12/10 08:55:49;;;;;;;13.10;6.90;;;;;;;8.88;71.43;93061.16;5009863;28;20481;-67
2020/12/10 08:58:33;;;;;;;12.48;6.40;;;;;;;8.93;71.24;93055.63;5008406;28;20076;-67
2020/12/10 09:01:01;;;;;;;12.38;6.78;;;;;;;9.01;70.37;93065.44;5009446;28;20673;-71
2020/12/10 09:03:26;;;;;;;19.40;7.18;;;;;;;9.11;70.84;93058.22;5008115;28;20164;-71
2020/12/10 09:05:52;;;;;;;29.40;7.50;;;;;;;9.18;71.07;93061.91;5009832;28;20109;-74
2020/12/10 09:08:18;;;;;;;13.70;7.65;;;;;;;9.23;69.62;93053.72;5008162;28;20545;-74
2020/12/10 09:10:44;;;;;;;14.18;8.13;;;;;;;9.24;69.64;93052.66;5009784;28;20053;-73
2020/12/10 09:13:09;;;;;;;14.68;7.68;;;;;;;9.27;69.93;93059.19;5008349;28;20057;-74
2020/12/10 09:15:35;;;;;;;18.40;8.50;;;;;;;9.34;70.32;93054.16;5008218;28;20029;-74
2020/12/10 09:18:01;;;;;;;14.13;9.10;;;;;;;9.39;70.00;93051.28;5008157;28;20504;-74
2020/12/10 09:20:26;;;;;;;12.98;7.70;;;;;;;9.43;70.29;93048.75;5009038;28;20030;-74
2020/12/10 09:22:52;;;;;;;20.83;9.20;;;;;;;9.47;70.30;93033.69;5008197;28;20571;-75
2020/12/10 09:25:17;;;;;;;17.63;10.45;;;;;;;9.54;70.24;93038.50;5007664;28;20029;-75
2020/12/10 09:27:43;;;;;;;28.83;10.75;;;;;;;9.60;70.08;93040.63;5013263;28;20136;-75
2020/12/10 09:30:10;;;;;;;24.42;13.35;;;;;;;9.66;70.04;93038.53;5011999;28;20400;-74
2020/12/10 09:32:37;;;;;;;29.25;14.85;;;;;;;9.72;69.80;93036.47;5011439;28;20045;-75
2020/12/10 09:35:06;;;;;;;27.48;13.88;;;;;;;9.77;69.51;93039.69;5013207;28;20036;-77
2020/12/10 09:37:33;;;;;;;44.85;21.98;;;;;;;9.81;69.39;93045.13;5013079;28;20038;-76
2020/12/10 09:39:59;;;;;;;38.20;17.88;;;;;;;9.88;69.69;93050.72;5011549;28;20026;-76
2020/12/10 09:42:24;;;;;;;32.85;15.65;;;;;;;9.90;70.01;93053.81;5012669;28;20042;-74
2020/12/10 09:44:50;;;;;;;33.95;18.00;;;;;;;9.99;69.69;93048.41;5011631;28;20030;-75
2020/12/10 09:47:15;;;;;;;35.20;17.17;;;;;;;10.01;69.53;93051.50;5012703;28;20037;-73
2020/12/10 09:49:41;;;;;;;38.35;19.30;;;;;;;10.00;69.65;93055.31;5012611;28;20416;-74
2020/12/10 09:52:07;;;;;;;67.35;26.42;;;;;;;9.99;69.19;93057.19;5012771;28;20057;-73
2020/12/10 09:54:42;;;;;;;44.08;21.75;;;;;;;10.01;69.32;93046.19;5007685;28;20145;-75
2020/12/10 09:57:23;;;;;;;265.38;93.35;;;;;;;10.00;69.46;93052.63;5011142;28;20030;-73
2020/12/10 09:59:48;;;;;;;44.10;22.27;;;;;;;10.00;70.25;93047.31;5010915;28;20048;-72
2020/12/10 10:02:17;;;;;;;29.77;14.40;;;;;;;9.93;69.66;93037.22;5012520;28;20477;-73
2020/12/10 10:04:42;;;;;;;29.27;12.82;;;;;;;9.94;70.01;93041.41;5012519;28;20026;-74
2020/12/10 10:07:08;;;;;;;19.05;9.13;;;;;;;9.94;69.49;93043.31;5012225;28;20426;-74
2020/12/10 10:09:34;;;;;;;24.38;11.23;;;;;;;9.93;69.77;93047.06;5012474;28;20033;-75
2020/12/10 10:12:00;;;;;;;30.80;13.48;;;;;;;9.93;70.07;93045.19;5012083;28;20033;-75
2020/12/10 10:14:26;;;;;;;31.25;16.40;;;;;;;9.97;70.48;93038.09;5011063;28;20477;-74
2020/12/10 10:16:53;;;;;;;36.63;18.58;;;;;;;9.98;70.21;93029.00;5012225;28;20030;-74
2020/12/10 10:19:19;;;;;;;48.55;23.55;;;;;;;9.97;70.27;93016.81;5012264;28;20013;-74
2020/12/10 10:21:45;;;;;;;52.72;22.02;;;;;;;9.97;70.30;93013.34;5012102;28;20113;-73
2020/12/10 10:24:10;;;;;;;42.00;23.17;;;;;;;9.94;70.36;93011.34;5012051;28;20021;-66
2020/12/10 10:26:35;;;;;;;44.20;23.38;;;;;;;9.94;70.66;93003.38;5010684;28;20030;-67
2020/12/10 10:29:04;;;;;;;43.95;23.08;;;;;;;9.95;70.34;93002.25;5011880;28;20515;-67
2020/12/10 10:31:30;;;;;;;42.90;22.88;;;;;;;9.96;70.58;92993.19;5010845;28;20061;-67
2020/12/10 10:33:55;;;;;;;43.55;23.25;;;;;;;9.98;70.64;93002.38;5010793;28;20057;-67
2020/12/10 10:36:22;;;;;;;47.13;22.48;;;;;;;10.03;70.78;92996.06;5011861;28;20041;-66
2020/12/10 10:38:48;;;;;;;45.20;22.05;;;;;;;10.04;70.46;92998.41;5012103;28;20036;-67
2020/12/10 10:41:13;;;;;;;40.38;20.90;;;;;;;10.09;70.37;93002.72;5011485;28;20124;-67
2020/12/10 10:43:39;;;;;;;37.95;20.52;;;;;;;10.07;70.52;93004.16;5010935;28;20033;-67
2020/12/10 10:46:04;;;;;;;40.33;22.00;;;;;;;10.08;70.57;93003.06;5010569;28;20112;-67
2020/12/10 10:48:29;;;;;;;39.40;22.33;;;;;;;10.10;70.68;93001.63;5010218;28;20117;-67
2020/12/10 10:50:55;;;;;;;45.55;22.58;;;;;;;10.12;70.88;93002.06;5010723;28;20021;-67
2020/12/10 10:53:20;;;;;;;49.30;21.75;;;;;;;10.14;70.82;93002.53;5011424;28;20029;-66
2020/12/10 10:55:50;;;;;;;41.70;21.35;;;;;;;10.16;70.77;93002.97;5010493;28;20037;-76
2020/12/10 10:58:16;;;;;;;39.75;21.65;;;;;;;10.12;70.66;92999.41;5010590;28;20103;-72
2020/12/10 11:00:45;;;;;;;43.88;23.17;;;;;;;10.08;70.74;92993.19;5011693;28;20021;-67
2020/12/10 11:03:11;;;;;;;37.40;21.40;;;;;;;10.09;70.89;93000.06;5010338;28;20107;-67
2020/12/10 11:05:36;;;;;;;43.65;25.83;;;;;;;10.12;70.53;92996.75;5011551;28;20068;-66
2020/12/10 11:08:01;;;;;;;46.03;21.70;;;;;;;10.14;70.13;92994.53;5011554;28;20442;-66
2020/12/10 11:10:27;;;;;;;39.15;20.45;;;;;;;10.15;70.07;93001.41;5011140;28;20497;-65
2020/12/10 11:12:52;;;;;;;39.22;20.05;;;;;;;10.17;69.96;92996.53;5011579;28;20030;-66
2020/12/10 11:15:18;;;;;;;39.85;19.98;;;;;;;10.14;70.62;92994.53;5011098;28;20511;-64
2020/12/10 11:17:44;;;;;;;37.10;16.67;;;;;;;10.11;70.54;92992.53;5008835;28;20507;-64
2020/12/10 11:20:09;;;;;;;36.65;19.63;;;;;;;10.13;70.87;92982.31;5009175;28;20116;-64
2020/12/10 11:22:37;;;;;;;39.30;18.35;;;;;;;10.17;70.76;92985.09;5009621;28;20053;-64
2020/12/10 11:25:03;;;;;;;37.47;19.58;;;;;;;10.19;70.85;92988.22;5010749;28;20025;-64
2020/12/10 11:27:30;;;;;;;33.30;17.30;;;;;;;10.21;70.75;92978.78;5010669;28;20040;-64
2020/12/10 11:29:57;;;;;;;28.25;16.08;;;;;;;10.24;70.48;92982.69;5009342;28;20469;-63
2020/12/10 11:32:22;;;;;;;41.40;17.33;;;;;;;10.25;70.62;92973.56;5010826;28;20026;-64